createdAt,value
2018-02-08T04:00:40.620Z,-2.77
2018-02-08T04:01:40.202Z,-2.77
2018-02-08T04:04:23.540Z,-2.74
2018-02-08T04:05:23.526Z,-2.76
2018-02-08T04:08:07.912Z,-2.80
2018-02-08T04:09:08.208Z,-2.84
2018-02-08T04:11:52.596Z,-2.79
2018-02-08T04:12:52.523Z,-2.77
2018-02-08T04:15:36.617Z,-2.94
2018-02-08T04:16:36.937Z,-2.88
2018-02-08T04:19:20.945Z,-2.98
2018-02-08T04:20:20.876Z,-2.97
2018-02-08T04:21:20.850Z,-2.94
2018-02-08T04:22:20.847Z,-2.88
2018-02-08T04:23:20.816Z,-2.98
2018-02-08T04:24:20.824Z,-2.97
2018-02-08T04:25:20.829Z,-3.03
2018-02-08T04:26:21.237Z,-3.02
2018-02-08T04:27:21.323Z,-2.97
2018-02-08T04:28:21.109Z,-3.01
2018-02-08T04:29:21.088Z,-2.88
2018-02-08T04:30:21.152Z,-2.87
2018-02-08T04:31:21.146Z,-2.87
2018-02-08T04:32:21.093Z,-2.90
2018-02-08T04:33:21.123Z,-2.88
2018-02-08T04:34:20.695Z,-2.87
2018-02-08T04:35:21.039Z,-2.84
2018-02-08T04:36:20.962Z,-2.94
2018-02-08T04:37:20.937Z,-2.92
2018-02-08T04:38:20.943Z,-3.02
2018-02-08T04:39:21.013Z,-2.94
2018-02-08T04:40:20.910Z,-2.94
2018-02-08T04:41:20.992Z,-3.01
2018-02-08T04:42:20.982Z,-3.09
2018-02-08T04:43:20.586Z,-3.08
2018-02-08T04:44:21.024Z,-3.02
2018-02-08T04:45:20.867Z,-3.09
2018-02-08T04:46:20.866Z,-2.97
2018-02-08T04:47:20.903Z,-3.01
2018-02-08T04:48:20.883Z,-2.98
2018-02-08T04:49:20.840Z,-2.91
2018-02-08T04:50:20.946Z,-3.10
2018-02-08T04:51:20.885Z,-3.08
2018-02-08T04:52:20.880Z,-3.08
2018-02-08T04:53:20.777Z,-3.06
2018-02-08T04:54:20.784Z,-3.12
2018-02-08T04:55:20.819Z,-3.10
2018-02-08T04:56:20.807Z,-3.08
2018-02-08T04:57:20.901Z,-3.08
2018-02-08T04:58:20.773Z,-3.09
2018-02-08T04:59:20.766Z,-3.08
2018-02-08T05:00:20.672Z,-3.09
2018-02-08T05:01:20.680Z,-3.08
2018-02-08T05:02:21.228Z,-3.05
2018-02-08T05:03:20.772Z,-3.08
2018-02-08T05:04:20.762Z,-2.97
2018-02-08T05:05:20.267Z,-3.09
2018-02-08T05:06:20.250Z,-3.27
2018-02-08T05:07:20.238Z,-3.20
2018-02-08T05:08:20.233Z,-3.18
2018-02-08T05:09:20.226Z,-3.08
2018-02-08T05:10:20.207Z,-3.21
2018-02-08T05:11:20.180Z,-3.08
2018-02-08T05:12:20.179Z,-3.13
2018-02-08T05:13:20.184Z,-3.08
2018-02-08T05:14:20.173Z,-3.10
2018-02-08T05:15:20.148Z,-3.18
2018-02-08T05:16:20.120Z,-3.13
2018-02-08T05:17:20.113Z,-3.08
2018-02-08T05:18:20.111Z,-3.06
2018-02-08T05:19:20.099Z,-3.10
2018-02-08T05:20:20.071Z,-3.06
2018-02-08T05:21:20.054Z,-3.06
2018-02-08T05:22:20.039Z,-2.95
2018-02-08T05:23:20.045Z,-2.98
2018-02-08T05:24:20.013Z,-3.01
2018-02-08T05:25:20.919Z,-2.94
2018-02-08T05:26:19.995Z,-2.97
2018-02-08T05:27:21.541Z,-2.98
2018-02-08T05:28:19.979Z,-2.91
2018-02-08T05:29:19.964Z,-2.90
2018-02-08T05:30:19.938Z,-2.84
2018-02-08T05:31:19.929Z,-2.90
2018-02-08T05:32:19.906Z,-2.90
2018-02-08T05:33:19.898Z,-2.87
2018-02-08T05:34:19.890Z,-2.90
2018-02-08T05:35:19.876Z,-2.85
2018-02-08T05:36:19.860Z,-2.98
2018-02-08T05:37:19.842Z,-2.88
2018-02-08T05:38:19.851Z,-2.98
2018-02-08T05:39:19.819Z,-2.98
2018-02-08T05:40:19.830Z,-2.98
2018-02-08T05:41:19.799Z,-2.95
2018-02-08T05:41:31.789Z,-3.02
2018-02-08T05:43:19.786Z,-3.10
2018-02-08T05:44:19.755Z,-3.02
2018-02-08T05:45:19.745Z,-2.95
2018-02-08T05:46:19.727Z,-2.92
2018-02-08T05:47:19.715Z,-2.92
2018-02-08T05:48:19.733Z,-2.98
2018-02-08T05:49:19.706Z,-3.06
2018-02-08T05:50:20.089Z,-3.03
2018-02-08T05:51:19.663Z,-3.06
2018-02-08T05:52:19.673Z,-3.02
2018-02-08T05:53:19.646Z,-3.01
2018-02-08T05:54:19.649Z,-2.92
2018-02-08T05:55:19.650Z,-3.08
2018-02-08T05:56:19.617Z,-3.09
2018-02-08T05:57:19.694Z,-3.06
2018-02-08T05:58:19.620Z,-3.08
2018-02-08T05:59:19.643Z,-3.09
2018-02-08T06:00:19.541Z,-3.09
2018-02-08T06:01:19.529Z,-3.08
2018-02-08T06:02:19.513Z,-3.18
2018-02-08T06:03:19.520Z,-3.10
2018-02-08T06:04:19.506Z,-3.21
2018-02-08T06:05:19.470Z,-3.24
2018-02-08T06:06:19.472Z,-3.10
2018-02-08T06:07:19.453Z,-3.23
2018-02-08T06:08:19.435Z,-3.21
2018-02-08T06:09:19.444Z,-3.29
2018-02-08T06:10:19.417Z,-3.21
2018-02-08T06:11:19.406Z,-3.33
2018-02-08T06:12:19.401Z,-3.29
2018-02-08T06:13:19.394Z,-3.29
2018-02-08T06:14:19.374Z,-3.39
2018-02-08T06:15:19.349Z,-3.29
2018-02-08T06:16:19.337Z,-3.27
2018-02-08T06:17:19.348Z,-3.29
2018-02-08T06:18:19.310Z,-3.30
2018-02-08T06:19:19.288Z,-3.30
2018-02-08T06:20:19.298Z,-3.31
2018-02-08T06:21:19.264Z,-3.27
2018-02-08T06:22:19.254Z,-3.34
2018-02-08T06:23:19.247Z,-3.29
2018-02-08T06:24:19.286Z,-3.36
2018-02-08T06:25:19.228Z,-3.36
2018-02-08T06:26:19.535Z,-3.33
2018-02-08T06:27:19.800Z,-3.38
2018-02-08T06:28:20.651Z,-3.38
2018-02-08T06:29:19.183Z,-3.27
2018-02-08T06:30:19.154Z,-3.45
2018-02-08T06:31:19.142Z,-3.33
2018-02-08T06:32:19.123Z,-3.47
2018-02-08T06:33:19.114Z,-3.47
2018-02-08T06:34:20.649Z,-3.48
2018-02-08T06:35:19.088Z,-3.45
2018-02-08T06:36:19.085Z,-3.42
2018-02-08T06:37:20.341Z,-3.48
2018-02-08T06:38:19.048Z,-3.51
2018-02-08T06:39:19.036Z,-3.38
2018-02-08T06:40:19.027Z,-3.49
2018-02-08T06:41:19.065Z,-3.42
2018-02-08T06:42:19.000Z,-3.48
2018-02-08T06:43:18.980Z,-3.54
2018-02-08T06:44:18.959Z,-3.44
2018-02-08T06:45:18.953Z,-3.45
2018-02-08T06:46:18.933Z,-3.52
2018-02-08T06:47:18.927Z,-3.48
2018-02-08T06:48:18.920Z,-3.48
2018-02-08T06:49:18.915Z,-3.51
2018-02-08T06:50:18.889Z,-3.44
2018-02-08T06:51:20.451Z,-3.44
2018-02-08T06:52:18.857Z,-3.38
2018-02-08T06:53:18.855Z,-3.41
2018-02-08T06:54:18.856Z,-3.33
2018-02-08T06:55:18.833Z,-3.30
2018-02-08T06:56:18.855Z,-3.27
2018-02-08T06:57:18.802Z,-3.33
2018-02-08T06:58:18.781Z,-3.31
2018-02-08T06:59:18.775Z,-3.31
2018-02-08T07:00:18.756Z,-3.30
2018-02-08T07:01:18.739Z,-3.29
2018-02-08T07:02:18.724Z,-3.26
2018-02-08T07:03:18.734Z,-3.31
2018-02-08T07:04:18.709Z,-3.38
2018-02-08T07:05:18.714Z,-3.27
2018-02-08T07:06:18.680Z,-3.36
2018-02-08T07:07:18.683Z,-3.33
2018-02-08T07:08:18.691Z,-3.34
2018-02-08T07:09:20.458Z,-3.39
2018-02-08T07:10:18.644Z,-3.34
2018-02-08T07:11:18.646Z,-3.31
2018-02-08T07:12:18.609Z,-3.30
2018-02-08T07:13:22.359Z,-3.29
2018-02-08T07:14:19.198Z,-3.33
2018-02-08T07:15:18.561Z,-3.21
2018-02-08T07:16:18.961Z,-3.16
2018-02-08T07:17:19.105Z,-3.18
2018-02-08T07:18:19.325Z,-3.31
2018-02-08T07:19:19.307Z,-3.20
2018-02-08T07:20:19.895Z,-3.26
2018-02-08T07:21:18.940Z,-3.18
2018-02-08T07:22:18.744Z,-3.27
2018-02-08T07:23:19.026Z,-3.18
2018-02-08T07:24:18.930Z,-3.20
2018-02-08T07:25:18.447Z,-3.23
2018-02-08T07:26:18.421Z,-3.21
2018-02-08T07:27:18.443Z,-3.15
2018-02-08T07:28:18.399Z,-3.18
2018-02-08T07:29:18.412Z,-3.10
2018-02-08T07:30:18.385Z,-3.21
2018-02-08T07:31:18.355Z,-3.10
2018-02-08T07:32:18.360Z,-3.10
2018-02-08T07:33:18.339Z,-3.06
2018-02-08T07:34:18.324Z,-2.98
2018-02-08T07:35:18.325Z,-3.06
2018-02-08T07:36:18.311Z,-3.09
2018-02-08T07:37:18.291Z,-3.01
2018-02-08T07:38:18.266Z,-3.01
2018-02-08T07:39:18.261Z,-2.95
2018-02-08T07:40:18.244Z,-2.95
2018-02-08T07:41:18.228Z,-2.95
2018-02-08T07:42:18.234Z,-2.94
2018-02-08T07:43:18.206Z,-2.82
2018-02-08T07:44:18.205Z,-2.82
2018-02-08T07:45:18.186Z,-2.84
2018-02-08T07:46:18.179Z,-2.72
2018-02-08T07:47:18.158Z,-2.73
2018-02-08T07:48:18.141Z,-2.70
2018-02-08T07:49:18.153Z,-2.58
2018-02-08T07:50:18.126Z,-2.61
2018-02-08T07:51:18.109Z,-2.59
2018-02-08T07:52:18.091Z,-2.59
2018-02-08T07:53:18.103Z,-2.58
2018-02-08T07:54:18.073Z,-2.61
2018-02-08T07:55:18.051Z,-2.52
2018-02-08T07:56:18.030Z,-2.43
2018-02-08T07:57:18.048Z,-2.41
2018-02-08T07:58:18.005Z,-2.40
2018-02-08T07:59:18.005Z,-2.21
2018-02-08T08:00:17.989Z,-2.21
2018-02-08T08:01:18.003Z,-2.19
2018-02-08T08:02:17.961Z,-2.12
2018-02-08T08:03:17.968Z,-2.16
2018-02-08T08:04:17.938Z,-2.16
2018-02-08T08:05:17.925Z,-2.06
2018-02-08T08:06:17.920Z,-1.98
2018-02-08T08:07:17.912Z,-1.94
2018-02-08T08:08:17.897Z,-1.94
2018-02-08T08:09:17.874Z,-1.80
2018-02-08T08:10:17.879Z,-1.79
2018-02-08T08:11:17.853Z,-1.80
2018-02-08T08:12:17.829Z,-1.64
2018-02-08T08:13:17.841Z,-1.65
2018-02-08T08:14:17.912Z,-1.61
2018-02-08T08:15:17.802Z,-1.52
2018-02-08T08:16:17.782Z,-1.47
2018-02-08T08:17:17.777Z,-1.57
2018-02-08T08:18:17.780Z,-1.36
2018-02-08T08:19:17.744Z,-1.37
2018-02-08T08:20:17.751Z,-1.37
2018-02-08T08:21:17.720Z,-1.28
2018-02-08T08:22:17.727Z,-1.22
2018-02-08T08:23:17.694Z,-1.25
2018-02-08T08:24:17.696Z,-1.21
2018-02-08T08:25:17.671Z,-1.16
2018-02-08T08:26:17.674Z,-1.08
2018-02-08T08:27:17.654Z,-1.08
2018-02-08T08:28:17.643Z,-1.08
2018-02-08T08:29:17.623Z,-1.15
2018-02-08T08:30:17.675Z,-1.03
2018-02-08T08:31:17.615Z,-1.01
2018-02-08T08:32:17.596Z,-0.92
2018-02-08T08:33:17.585Z,-1.03
2018-02-08T08:34:17.566Z,-1.00
2018-02-08T08:35:17.550Z,-0.89
2018-02-08T08:36:17.539Z,-0.84
2018-02-08T08:37:17.520Z,-0.75
2018-02-08T08:38:17.515Z,-0.73
2018-02-08T08:39:17.508Z,-0.76
2018-02-08T08:40:17.478Z,-0.73
2018-02-08T08:41:17.470Z,-0.67
2018-02-08T08:42:17.468Z,-0.68
2018-02-08T08:43:17.453Z,-0.60
2018-02-08T08:44:17.432Z,-0.53
2018-02-08T08:45:17.428Z,-0.55
2018-02-08T08:46:17.414Z,-0.43
2018-02-08T08:47:17.401Z,-0.53
2018-02-08T08:48:17.406Z,-0.43
2018-02-08T08:49:17.381Z,-0.39
2018-02-08T08:50:17.392Z,-0.40
2018-02-08T08:51:17.357Z,-0.31
2018-02-08T08:52:17.340Z,-0.21
2018-02-08T08:53:17.355Z,-0.29
2018-02-08T08:54:17.322Z,-0.31
2018-02-08T08:55:17.317Z,-0.21
2018-02-08T08:56:17.301Z,-0.14
2018-02-08T08:57:17.310Z,-0.09
2018-02-08T08:58:17.277Z,-0.10
2018-02-08T08:59:17.268Z,-0.09
2018-02-08T09:00:17.269Z,-0.11
2018-02-08T09:01:17.255Z,-0.01
2018-02-08T09:02:17.218Z,-0.01
2018-02-08T09:03:17.225Z,-0.01
2018-02-08T09:04:17.213Z,0.09
2018-02-08T09:05:17.189Z,0.09
2018-02-08T09:06:17.166Z,0.04
2018-02-08T09:07:17.157Z,0.07
2018-02-08T09:08:17.166Z,0.07
2018-02-08T09:09:17.155Z,0.11
2018-02-08T09:10:17.126Z,0.00
2018-02-08T09:11:17.132Z,0.15
2018-02-08T09:12:17.178Z,0.12
2018-02-08T09:13:17.088Z,0.11
2018-02-08T09:14:17.091Z,0.08
2018-02-08T09:15:17.075Z,0.08
2018-02-08T09:16:17.051Z,0.12
2018-02-08T09:17:17.046Z,0.17
2018-02-08T09:18:17.061Z,0.15
2018-02-08T09:19:17.064Z,0.14
2018-02-08T09:20:17.007Z,0.25
2018-02-08T09:21:16.994Z,0.25
2018-02-08T09:22:16.994Z,0.27
2018-02-08T09:23:16.991Z,0.25
2018-02-08T09:24:16.959Z,0.44
2018-02-08T09:25:16.977Z,0.35
2018-02-08T09:26:16.929Z,0.44
2018-02-08T09:27:16.926Z,0.40
2018-02-08T09:28:16.919Z,0.44
2018-02-08T09:29:16.906Z,0.44
2018-02-08T09:30:16.883Z,0.43
2018-02-08T09:31:16.917Z,0.51
2018-02-08T09:32:16.865Z,0.51
2018-02-08T09:33:16.863Z,0.66
2018-02-08T09:34:16.857Z,0.72
2018-02-08T09:35:16.845Z,0.74
2018-02-08T09:36:16.812Z,0.72
2018-02-08T09:37:16.801Z,0.82
2018-02-08T09:38:16.813Z,0.82
2018-02-08T09:39:16.785Z,0.96
2018-02-08T09:40:16.771Z,0.94
2018-02-08T09:41:16.769Z,1.03
2018-02-08T09:42:16.747Z,1.05
2018-02-08T09:43:16.734Z,0.99
2018-02-08T09:44:16.759Z,1.02
2018-02-08T09:45:16.732Z,1.02
2018-02-08T09:46:16.703Z,1.09
2018-02-08T09:47:16.698Z,1.13
2018-02-08T09:48:16.675Z,1.06
2018-02-08T09:49:16.664Z,1.16
2018-02-08T09:50:16.678Z,1.13
2018-02-08T09:51:16.661Z,1.26
2018-02-08T09:52:16.639Z,1.18
2018-02-08T09:53:16.636Z,1.21
2018-02-08T09:54:16.661Z,1.27
2018-02-08T09:55:16.624Z,1.21
2018-02-08T09:56:16.602Z,1.35
2018-02-08T09:57:16.606Z,1.34
2018-02-08T09:58:16.571Z,1.34
2018-02-08T09:59:16.564Z,1.49
2018-02-08T10:00:16.542Z,1.45
2018-02-08T10:01:16.547Z,1.53
2018-02-08T10:02:16.541Z,1.52
2018-02-08T10:03:16.520Z,1.59
2018-02-08T10:04:16.493Z,1.62
2018-02-08T10:05:16.504Z,1.55
2018-02-08T10:06:16.481Z,1.56
2018-02-08T10:07:16.481Z,1.63
2018-02-08T10:08:16.475Z,1.67
2018-02-08T10:09:16.448Z,1.60
2018-02-08T10:10:16.470Z,1.62
2018-02-08T10:11:16.425Z,1.56
2018-02-08T10:12:16.448Z,1.53
2018-02-08T10:13:16.423Z,1.59
2018-02-08T10:14:16.410Z,1.56
2018-02-08T10:15:16.403Z,1.49
2018-02-08T10:16:16.374Z,1.53
2018-02-08T10:17:16.417Z,1.53
2018-02-08T10:18:16.366Z,1.44
2018-02-08T10:19:16.367Z,1.52
2018-02-08T10:20:16.334Z,1.49
2018-02-08T10:21:16.323Z,1.46
2018-02-08T10:22:16.324Z,1.46
2018-02-08T10:23:16.310Z,1.49
2018-02-08T10:24:16.281Z,1.45
2018-02-08T10:25:16.290Z,1.41
2018-02-08T10:26:16.262Z,1.53
2018-02-08T10:27:16.256Z,1.41
2018-02-08T10:28:16.245Z,1.56
2018-02-08T10:29:16.241Z,1.56
2018-02-08T10:30:16.217Z,1.52
2018-02-08T10:31:16.207Z,1.69
2018-02-08T10:32:16.198Z,1.62
2018-02-08T10:33:16.201Z,1.63
2018-02-08T10:34:16.196Z,1.60
2018-02-08T10:35:16.172Z,1.63
2018-02-08T10:36:16.145Z,1.62
2018-02-08T10:37:16.164Z,1.69
2018-02-08T10:38:16.153Z,1.69
2018-02-08T10:39:16.124Z,1.63
2018-02-08T10:40:16.125Z,1.71
2018-02-08T10:41:16.121Z,1.80
2018-02-08T10:42:16.101Z,1.74
2018-02-08T10:43:16.093Z,1.85
2018-02-08T10:44:16.062Z,1.85
2018-02-08T10:45:16.063Z,1.84
2018-02-08T10:46:16.054Z,1.82
2018-02-08T10:47:16.036Z,1.91
2018-02-08T10:48:16.023Z,1.91
2018-02-08T10:49:16.005Z,1.93
2018-02-08T10:50:16.005Z,1.95
2018-02-08T10:51:15.990Z,1.87
2018-02-08T10:52:16.033Z,1.91
2018-02-08T10:53:15.964Z,1.91
2018-02-08T10:54:15.950Z,1.92
2018-02-08T10:55:15.951Z,1.99
2018-02-08T10:56:15.931Z,1.99
2018-02-08T10:57:15.942Z,2.00
2018-02-08T10:58:15.947Z,2.01
2018-02-08T10:59:15.907Z,1.93
2018-02-08T11:00:15.891Z,2.01
2018-02-08T11:01:15.912Z,2.00
2018-02-08T11:02:15.920Z,2.07
2018-02-08T11:03:15.878Z,2.06
2018-02-08T11:04:15.876Z,2.04
2018-02-08T11:05:15.858Z,2.07
2018-02-08T11:06:15.835Z,1.92
2018-02-08T11:07:15.809Z,1.92
2018-02-08T11:08:15.799Z,2.01
2018-02-08T11:09:15.818Z,2.01
2018-02-08T11:10:15.777Z,2.00
2018-02-08T11:11:15.772Z,1.93
2018-02-08T11:12:15.760Z,1.99
2018-02-08T11:13:15.755Z,1.91
2018-02-08T11:14:15.725Z,2.04
2018-02-08T11:15:15.723Z,1.97
2018-02-08T11:16:15.708Z,1.92
2018-02-08T11:17:15.704Z,1.92
2018-02-08T11:18:15.692Z,2.04
2018-02-08T11:19:15.697Z,1.92
2018-02-08T11:20:15.669Z,1.97
2018-02-08T11:21:15.668Z,1.99
2018-02-08T11:22:15.648Z,2.01
2018-02-08T11:23:15.651Z,1.97
2018-02-08T11:24:15.626Z,2.00
2018-02-08T11:25:15.632Z,2.04
2018-02-08T11:26:15.618Z,2.06
2018-02-08T11:27:15.601Z,2.07
2018-02-08T11:28:15.597Z,2.12
2018-02-08T11:29:15.570Z,2.03
2018-02-08T11:30:15.557Z,2.03
2018-02-08T11:31:15.541Z,2.12
2018-02-08T11:32:15.548Z,2.12
2018-02-08T11:33:15.516Z,2.06
2018-02-08T11:34:15.520Z,2.10
2018-02-08T11:35:15.505Z,2.04
2018-02-08T11:36:15.493Z,2.11
2018-02-08T11:37:15.483Z,2.04
2018-02-08T11:38:15.485Z,2.07
2018-02-08T11:39:15.486Z,2.24
2018-02-08T11:40:15.452Z,2.10
2018-02-08T11:41:15.453Z,2.18
2018-02-08T11:42:15.428Z,2.21
2018-02-08T11:43:15.417Z,2.15
2018-02-08T11:44:15.399Z,2.21
2018-02-08T11:45:15.389Z,2.24
2018-02-08T11:46:15.383Z,2.24
2018-02-08T11:47:15.371Z,2.30
2018-02-08T11:48:15.366Z,2.25
2018-02-08T11:49:15.376Z,2.47
2018-02-08T11:50:15.361Z,2.33
2018-02-08T11:51:15.341Z,2.39
2018-02-08T11:52:15.343Z,2.36
2018-02-08T11:53:15.308Z,2.33
2018-02-08T11:54:15.302Z,2.37
2018-02-08T11:55:15.281Z,2.42
2018-02-08T11:56:15.281Z,2.42
2018-02-08T11:57:15.263Z,2.47
2018-02-08T11:58:15.285Z,2.39
2018-02-08T11:59:15.233Z,2.40
2018-02-08T12:00:15.222Z,2.39
2018-02-08T12:01:15.229Z,2.39
2018-02-08T12:02:15.235Z,2.45
2018-02-08T12:03:15.213Z,2.54
2018-02-08T12:04:15.188Z,2.48
2018-02-08T12:05:15.192Z,2.50
2018-02-08T12:06:15.164Z,2.40
2018-02-08T12:07:15.151Z,2.40
2018-02-08T12:08:15.157Z,2.42
2018-02-08T12:09:15.148Z,2.35
2018-02-08T12:10:15.127Z,2.36
2018-02-08T12:11:15.144Z,2.35
2018-02-08T12:12:15.120Z,2.33
2018-02-08T12:13:15.082Z,2.35
2018-02-08T12:14:15.084Z,2.29
2018-02-08T12:15:15.071Z,2.32
2018-02-08T12:16:15.070Z,2.29
2018-02-08T12:17:15.038Z,2.17
2018-02-08T12:18:15.033Z,2.22
2018-02-08T12:19:15.027Z,2.19
2018-02-08T12:20:15.011Z,2.10
2018-02-08T12:21:15.013Z,2.10
2018-02-08T12:22:14.984Z,2.06
2018-02-08T12:23:14.978Z,2.03
2018-02-08T12:24:14.993Z,2.03
2018-02-08T12:25:14.950Z,2.18
2018-02-08T12:26:14.962Z,2.22
2018-02-08T12:27:14.939Z,2.25
2018-02-08T12:28:14.943Z,2.30
2018-02-08T12:29:14.929Z,2.40
2018-02-08T12:30:14.905Z,2.37
2018-02-08T12:31:14.966Z,2.39
2018-02-08T12:32:14.894Z,2.42
2018-02-08T12:33:14.886Z,2.40
2018-02-08T12:34:14.863Z,2.47
2018-02-08T12:35:14.848Z,2.48
2018-02-08T12:36:14.843Z,2.53
2018-02-08T12:37:14.851Z,2.50
2018-02-08T12:38:14.816Z,2.47
2018-02-08T12:39:14.804Z,2.47
2018-02-08T12:40:15.388Z,2.42
2018-02-08T12:41:14.799Z,2.53
2018-02-08T12:42:15.181Z,2.60
2018-02-08T12:43:14.755Z,2.51
2018-02-08T12:44:14.763Z,2.55
2018-02-08T12:45:14.739Z,2.50
2018-02-08T12:46:14.729Z,2.61
2018-02-08T12:47:14.733Z,2.55
2018-02-08T12:48:14.723Z,2.48
2018-02-08T12:49:17.571Z,2.58
2018-02-08T12:50:15.316Z,2.54
2018-02-08T12:51:15.873Z,2.57
2018-02-08T12:52:14.682Z,2.61
2018-02-08T12:53:14.655Z,2.55
2018-02-08T12:54:14.641Z,2.60
2018-02-08T12:55:14.645Z,2.58
2018-02-08T12:56:14.656Z,2.54
2018-02-08T12:57:14.625Z,2.55
2018-02-08T12:58:14.605Z,2.54
2018-02-08T12:59:14.641Z,2.60
2018-02-08T13:00:14.619Z,2.57
2018-02-08T13:01:14.678Z,2.68
2018-02-08T13:02:14.625Z,2.57
2018-02-08T13:03:14.545Z,2.55
2018-02-08T13:04:14.533Z,2.65
2018-02-08T13:05:14.919Z,2.65
2018-02-08T13:06:14.593Z,2.63
2018-02-08T13:07:14.510Z,2.60
2018-02-08T13:08:14.495Z,2.60
2018-02-08T13:09:14.512Z,2.53
2018-02-08T13:10:14.465Z,2.50
2018-02-08T13:11:14.477Z,2.48
2018-02-08T13:12:14.452Z,2.45
2018-02-08T13:13:14.430Z,2.53
2018-02-08T13:14:14.416Z,2.51
2018-02-08T13:15:14.425Z,2.53
2018-02-08T13:16:14.402Z,2.51
2018-02-08T13:17:14.400Z,2.50
2018-02-08T13:18:14.393Z,2.48
2018-02-08T13:19:14.375Z,2.69
2018-02-08T13:20:14.419Z,2.61
2018-02-08T13:21:14.472Z,2.60
2018-02-08T13:22:14.356Z,2.58
2018-02-08T13:23:14.327Z,2.57
2018-02-08T13:24:14.321Z,2.54
2018-02-08T13:25:14.313Z,2.63
2018-02-08T13:26:14.310Z,2.69
2018-02-08T13:27:14.300Z,2.61
2018-02-08T13:28:14.271Z,2.65
2018-02-08T13:29:14.254Z,2.65
2018-02-08T13:30:14.254Z,2.71
2018-02-08T13:31:14.247Z,2.71
2018-02-08T13:32:14.313Z,2.75
2018-02-08T13:33:14.339Z,2.75
2018-02-08T13:34:14.207Z,2.73
2018-02-08T13:35:14.218Z,2.72
2018-02-08T13:36:14.181Z,2.75
2018-02-08T13:37:14.192Z,2.82
2018-02-08T13:38:14.168Z,2.73
2018-02-08T13:39:14.164Z,2.76
2018-02-08T13:40:14.151Z,2.75
2018-02-08T13:41:14.153Z,2.65
2018-02-08T13:42:14.134Z,2.63
2018-02-08T13:43:14.118Z,2.61
2018-02-08T13:44:14.096Z,2.63
2018-02-08T13:45:14.121Z,2.63
2018-02-08T13:46:14.070Z,2.69
2018-02-08T13:47:14.068Z,2.71
2018-02-08T13:48:14.069Z,2.75
2018-02-08T13:49:14.051Z,2.69
2018-02-08T13:50:14.066Z,2.78
2018-02-08T13:51:14.230Z,2.63
2018-02-08T13:52:14.015Z,2.71
2018-02-08T13:53:13.996Z,2.68
2018-02-08T13:54:14.002Z,2.76
2018-02-08T13:55:13.998Z,2.75
2018-02-08T13:56:13.969Z,2.75
2018-02-08T13:57:13.976Z,2.73
2018-02-08T13:58:13.953Z,2.72
2018-02-08T13:59:13.944Z,2.84
2018-02-08T14:00:13.944Z,2.75
2018-02-08T14:01:13.928Z,2.75
2018-02-08T14:02:13.931Z,2.79
2018-02-08T14:03:13.922Z,2.72
2018-02-08T14:04:13.876Z,2.76
2018-02-08T14:05:13.877Z,2.73
2018-02-08T14:06:13.865Z,2.76
2018-02-08T14:07:13.852Z,2.82
2018-02-08T14:08:13.855Z,2.76
2018-02-08T14:09:13.825Z,2.76
2018-02-08T14:10:13.836Z,2.69
2018-02-08T14:11:13.818Z,2.75
2018-02-08T14:12:13.808Z,2.75
2018-02-08T14:13:13.818Z,2.71
2018-02-08T14:14:13.792Z,2.81
2018-02-08T14:15:13.833Z,2.75
2018-02-08T14:16:13.763Z,2.79
2018-02-08T14:17:13.741Z,2.76
2018-02-08T14:18:13.745Z,2.73
2018-02-08T14:19:13.717Z,2.71
2018-02-08T14:20:13.706Z,2.68
2018-02-08T14:21:13.715Z,2.81
2018-02-08T14:22:13.745Z,2.72
2018-02-08T14:23:13.725Z,2.71
2018-02-08T14:24:13.659Z,2.63
2018-02-08T14:25:13.664Z,2.72
2018-02-08T14:26:13.655Z,2.72
2018-02-08T14:27:13.691Z,2.81
2018-02-08T14:28:13.649Z,2.69
2018-02-08T14:29:13.607Z,2.81
2018-02-08T14:30:13.601Z,2.76
2018-02-08T14:31:13.588Z,2.73
2018-02-08T14:32:13.599Z,2.75
2018-02-08T14:33:13.566Z,2.75
2018-02-08T14:34:13.562Z,2.75
2018-02-08T14:35:13.560Z,2.72
2018-02-08T14:36:13.538Z,2.73
2018-02-08T14:37:13.531Z,2.72
2018-02-08T14:38:13.528Z,2.71
2018-02-08T14:39:13.516Z,2.65
2018-02-08T14:40:13.559Z,2.65
2018-02-08T14:41:13.509Z,2.69
2018-02-08T14:42:13.465Z,2.53
2018-02-08T14:43:13.657Z,2.61
2018-02-08T14:44:13.440Z,2.54
2018-02-08T14:45:13.459Z,2.54
2018-02-08T14:46:13.435Z,2.51
2018-02-08T14:47:13.820Z,2.58
2018-02-08T14:48:13.447Z,2.50
2018-02-08T14:49:13.398Z,2.54
2018-02-08T14:50:13.379Z,2.53
2018-02-08T14:51:13.387Z,2.53
2018-02-08T14:52:13.371Z,2.50
2018-02-08T14:53:13.362Z,2.55
2018-02-08T14:54:13.340Z,2.54
2018-02-08T14:55:13.331Z,2.50
2018-02-08T14:56:13.315Z,2.54
2018-02-08T14:57:13.310Z,2.45
2018-02-08T14:58:13.290Z,2.53
2018-02-08T14:59:13.293Z,2.50
2018-02-08T15:00:13.281Z,2.37
2018-02-08T15:01:13.271Z,2.35
2018-02-08T15:02:13.251Z,2.37
2018-02-08T15:03:13.240Z,2.45
2018-02-08T15:04:13.247Z,2.43
2018-02-08T15:05:13.214Z,2.45
2018-02-08T15:06:13.226Z,2.40
2018-02-08T15:07:13.216Z,2.45
2018-02-08T15:08:13.183Z,2.43
2018-02-08T15:08:25.195Z,2.47
2018-02-08T15:10:13.188Z,2.43
2018-02-08T15:11:13.182Z,2.47
2018-02-08T15:12:13.137Z,2.47
2018-02-08T15:13:13.150Z,2.45
2018-02-08T15:14:13.120Z,2.45
2018-02-08T15:15:13.112Z,2.51
2018-02-08T15:16:13.100Z,2.40
2018-02-08T15:17:13.102Z,2.45
2018-02-08T15:18:13.086Z,2.37
2018-02-08T15:19:13.075Z,2.39
2018-02-08T15:20:13.063Z,2.40
2018-02-08T15:21:13.054Z,2.40
2018-02-08T15:22:13.037Z,2.36
2018-02-08T15:23:13.022Z,2.40
2018-02-08T15:24:13.012Z,2.39
2018-02-08T15:25:13.014Z,2.36
2018-02-08T15:26:12.994Z,2.37
2018-02-08T15:27:12.993Z,2.39
2018-02-08T15:28:12.968Z,2.33
2018-02-08T15:29:12.949Z,2.22
2018-02-08T15:30:12.950Z,2.24
2018-02-08T15:31:12.975Z,2.21
2018-02-08T15:32:12.935Z,2.15
2018-02-08T15:33:12.908Z,2.21
2018-02-08T15:34:12.918Z,2.24
2018-02-08T15:35:13.030Z,2.22
2018-02-08T15:36:12.875Z,2.24
2018-02-08T15:37:12.867Z,2.17
2018-02-08T15:38:12.864Z,2.03
2018-02-08T15:39:12.847Z,2.06
2018-02-08T15:40:12.834Z,2.11
2018-02-08T15:41:12.843Z,2.11
2018-02-08T15:42:12.823Z,2.07
2018-02-08T15:43:12.827Z,2.01
2018-02-08T15:44:12.788Z,2.06
2018-02-08T15:45:12.771Z,2.01
2018-02-08T15:46:12.771Z,1.89
2018-02-08T15:47:12.756Z,1.95
2018-02-08T15:48:12.757Z,1.84
2018-02-08T15:49:12.741Z,1.95
2018-02-08T15:50:12.715Z,1.87
2018-02-08T15:51:12.703Z,1.92
2018-02-08T15:52:12.690Z,1.92
2018-02-08T15:53:12.695Z,1.89
2018-02-08T15:54:12.679Z,1.80
2018-02-08T15:55:12.657Z,1.80
2018-02-08T15:56:13.142Z,1.71
2018-02-08T15:57:12.663Z,1.71
2018-02-08T15:58:12.934Z,1.69
2018-02-08T15:59:12.669Z,1.57
2018-02-08T16:00:12.917Z,1.64
2018-02-08T16:01:16.972Z,1.64
2018-02-08T16:02:16.791Z,1.55
2018-02-08T16:03:12.578Z,1.52
2018-02-08T16:04:15.442Z,1.41
2018-02-08T16:05:12.567Z,1.42
2018-02-08T16:06:12.553Z,1.41
2018-02-08T16:07:12.526Z,1.42
2018-02-08T16:08:12.512Z,1.36
2018-02-08T16:09:12.495Z,1.31
2018-02-08T16:10:12.506Z,1.31
2018-02-08T16:11:12.475Z,1.28
2018-02-08T16:12:12.476Z,1.18
2018-02-08T16:13:12.462Z,1.10
2018-02-08T16:14:12.444Z,1.12
2018-02-08T16:15:12.450Z,1.06
2018-02-08T16:16:12.443Z,0.96
2018-02-08T16:17:12.408Z,1.08
2018-02-08T16:18:12.402Z,0.96
2018-02-08T16:19:12.388Z,0.99
2018-02-08T16:20:12.375Z,0.94
2018-02-08T16:21:12.363Z,0.91
2018-02-08T16:22:12.356Z,0.80
2018-02-08T16:23:12.347Z,0.82
2018-02-08T16:24:12.337Z,0.78
2018-02-08T16:25:12.311Z,0.81
2018-02-08T16:26:12.315Z,0.73
2018-02-08T16:26:24.315Z,0.67
2018-02-08T16:28:12.284Z,0.67
2018-02-08T16:29:12.294Z,0.63
2018-02-08T16:30:12.276Z,0.60
2018-02-08T16:31:12.247Z,0.55
2018-02-08T16:32:27.705Z,0.51
2018-02-08T16:33:18.083Z,0.56
2018-02-08T16:34:18.084Z,0.51
2018-02-08T16:35:18.060Z,0.50
2018-02-08T16:36:18.051Z,0.56
2018-02-08T16:37:18.049Z,0.44
2018-02-08T16:38:18.022Z,0.44
2018-02-08T16:39:18.055Z,0.43
2018-02-08T16:40:18.155Z,0.44
2018-02-08T16:41:17.999Z,0.41
2018-02-08T16:42:17.997Z,0.41
2018-02-08T16:43:17.976Z,0.37
2018-02-08T16:44:17.968Z,0.35
2018-02-08T16:45:17.963Z,0.20
2018-02-08T16:46:17.946Z,0.27
2018-02-08T16:47:17.939Z,0.27
2018-02-08T16:48:17.973Z,0.04
2018-02-08T16:49:17.903Z,0.12
2018-02-08T16:50:17.911Z,0.07
2018-02-08T16:51:17.869Z,0.05
2018-02-08T16:52:17.858Z,0.04
2018-02-08T16:53:17.841Z,0.09
2018-02-08T16:54:17.845Z,0.04
2018-02-08T16:55:17.833Z,0.00
2018-02-08T16:56:17.797Z,0.11
2018-02-08T16:57:17.820Z,0.00
2018-02-08T16:58:17.774Z,0.00
2018-02-08T16:59:17.783Z,0.00
2018-02-08T17:00:17.754Z,-0.04
2018-02-08T17:01:17.758Z,-0.13
2018-02-08T17:02:17.744Z,-0.11
2018-02-08T17:03:17.791Z,-0.07
2018-02-08T17:04:17.714Z,-0.14
2018-02-08T17:05:17.693Z,-0.21
2018-02-08T17:06:17.707Z,-0.24
2018-02-08T17:07:17.686Z,-0.27
2018-02-08T17:08:17.659Z,-0.24
2018-02-08T17:09:17.656Z,-0.14
2018-02-08T17:10:17.673Z,-0.29
2018-02-08T17:11:17.649Z,-0.28
2018-02-08T17:12:17.631Z,-0.31
2018-02-08T17:13:17.588Z,-0.29
2018-02-08T17:14:17.580Z,-0.34
2018-02-08T17:15:17.592Z,-0.22
2018-02-08T17:16:17.561Z,-0.22
2018-02-08T17:17:17.540Z,-0.24